sensor_id;sensor_type;location;lat;lon;timestamp;pressure;altitude;pressure_sealevel;temperature;humidity
48553;BME280;34335;51.566;6.994;2023-05-25T00:02:09;101890.19;;;11.02;100.00
48553;BME280;34335;51.566;6.994;2023-05-25T00:04:39;101883.34;;;11.05;100.00
48553;BME280;34335;51.566;6.994;2023-05-25T00:07:05;101875.47;;;11.01;100.00
48553;BME280;34335;51.566;6.994;2023-05-25T00:09:30;101882.16;;;10.86;100.00
48553;BME280;34335;51.566;6.994;2023-05-25T00:11:55;101878.59;;;10.81;100.00
48553;BME280;34335;51.566;6.994;2023-05-25T00:14:22;101879.53;;;10.85;100.00
48553;BME280;34335;51.566;6.994;2023-05-25T00:16:47;101883.06;;;10.88;100.00
48553;BME280;34335;51.566;6.994;2023-05-25T00:19:13;101873.34;;;10.80;100.00
48553;BME280;34335;51.566;6.994;2023-05-25T00:21:39;101884.66;;;10.80;100.00
48553;BME280;34335;51.566;6.994;2023-05-25T00:24:06;101881.16;;;10.78;100.00
48553;BME280;34335;51.566;6.994;2023-05-25T00:26:31;101889.47;;;10.58;100.00
48553;BME280;34335;51.566;6.994;2023-05-25T00:28:57;101880.88;;;10.63;100.00
48553;BME280;34335;51.566;6.994;2023-05-25T00:31:24;101883.59;;;10.69;100.00
48553;BME280;34335;51.566;6.994;2023-05-25T00:33:50;101887.88;;;10.65;100.00
48553;BME280;34335;51.566;6.994;2023-05-25T00:36:15;101885.22;;;10.64;100.00
48553;BME280;34335;51.566;6.994;2023-05-25T00:38:40;101887.78;;;10.60;100.00
48553;BME280;34335;51.566;6.994;2023-05-25T00:41:06;101892.06;;;10.57;100.00
48553;BME280;34335;51.566;6.994;2023-05-25T00:43:31;101879.84;;;10.54;100.00
48553;BME280;34335;51.566;6.994;2023-05-25T00:45:57;101889.25;;;10.46;100.00
48553;BME280;34335;51.566;6.994;2023-05-25T00:48:24;101884.13;;;10.51;100.00
48553;BME280;34335;51.566;6.994;2023-05-25T00:50:53;101891.00;;;10.47;100.00
48553;BME280;34335;51.566;6.994;2023-05-25T00:53:18;101890.13;;;10.47;100.00
48553;BME280;34335;51.566;6.994;2023-05-25T00:56:01;101894.44;;;10.46;100.00
48553;BME280;34335;51.566;6.994;2023-05-25T00:58:30;101890.06;;;10.42;100.00
48553;BME280;34335;51.566;6.994;2023-05-25T01:00:57;101891.72;;;10.38;100.00
48553;BME280;34335;51.566;6.994;2023-05-25T01:03:24;101889.75;;;10.28;100.00
48553;BME280;34335;51.566;6.994;2023-05-25T01:05:54;101889.66;;;10.23;100.00
48553;BME280;34335;51.566;6.994;2023-05-25T01:08:21;101892.31;;;10.26;100.00
48553;BME280;34335;51.566;6.994;2023-05-25T01:10:48;101887.06;;;10.23;100.00
48553;BME280;34335;51.566;6.994;2023-05-25T01:13:16;101894.88;;;10.23;100.00
48553;BME280;34335;51.566;6.994;2023-05-25T01:15:42;101892.19;;;10.20;100.00
48553;BME280;34335;51.566;6.994;2023-05-25T01:18:07;101890.44;;;10.18;100.00
48553;BME280;34335;51.566;6.994;2023-05-25T01:20:33;101896.38;;;10.12;100.00
48553;BME280;34335;51.566;6.994;2023-05-25T01:23:04;101900.59;;;10.07;100.00
48553;BME280;34335;51.566;6.994;2023-05-25T01:25:47;101896.97;;;9.98;100.00
48553;BME280;34335;51.566;6.994;2023-05-25T01:28:22;101897.84;;;9.99;100.00
48553;BME280;34335;51.566;6.994;2023-05-25T01:30:49;101904.63;;;9.92;100.00
48553;BME280;34335;51.566;6.994;2023-05-25T01:33:17;101902.97;;;9.96;100.00
48553;BME280;34335;51.566;6.994;2023-05-25T01:35:43;101898.59;;;9.93;100.00
48553;BME280;34335;51.566;6.994;2023-05-25T01:38:09;101896.88;;;9.95;100.00
48553;BME280;34335;51.566;6.994;2023-05-25T01:40:34;101903.84;;;9.96;100.00
48553;BME280;34335;51.566;6.994;2023-05-25T01:43:00;101901.06;;;9.87;100.00
48553;BME280;34335;51.566;6.994;2023-05-25T01:45:25;101901.78;;;9.80;100.00
48553;BME280;34335;51.566;6.994;2023-05-25T01:48:23;101902.59;;;9.77;100.00
48553;BME280;34335;51.566;6.994;2023-05-25T01:50:55;101910.22;;;9.70;100.00
48553;BME280;34335;51.566;6.994;2023-05-25T01:53:27;101913.84;;;9.78;100.00
48553;BME280;34335;51.566;6.994;2023-05-25T01:56:02;101918.19;;;9.77;100.00
48553;BME280;34335;51.566;6.994;2023-05-25T01:58:42;101916.19;;;9.65;100.00
48553;BME280;34335;51.566;6.994;2023-05-25T02:01:09;101921.72;;;9.43;100.00
48553;BME280;34335;51.566;6.994;2023-05-25T02:03:36;101917.75;;;9.20;100.00
48553;BME280;34335;51.566;6.994;2023-05-25T02:06:02;101917.56;;;9.13;100.00
48553;BME280;34335;51.566;6.994;2023-05-25T02:08:27;101914.00;;;9.08;100.00
48553;BME280;34335;51.566;6.994;2023-05-25T02:10:52;101912.28;;;9.10;100.00
48553;BME280;34335;51.566;6.994;2023-05-25T02:13:18;101913.06;;;9.06;100.00
48553;BME280;34335;51.566;6.994;2023-05-25T02:15:43;101905.91;;;8.97;100.00
48553;BME280;34335;51.566;6.994;2023-05-25T02:18:08;101899.81;;;8.95;100.00
48553;BME280;34335;51.566;6.994;2023-05-25T02:20:35;101903.66;;;9.11;100.00
48553;BME280;34335;51.566;6.994;2023-05-25T02:23:01;101905.59;;;9.18;100.00
48553;BME280;34335;51.566;6.994;2023-05-25T02:25:26;101914.25;;;9.20;100.00
48553;BME280;34335;51.566;6.994;2023-05-25T02:27:52;101905.41;;;9.10;100.00
48553;BME280;34335;51.566;6.994;2023-05-25T02:30:18;101910.84;;;9.21;100.00
48553;BME280;34335;51.566;6.994;2023-05-25T02:32:43;101912.59;;;9.22;100.00
48553;BME280;34335;51.566;6.994;2023-05-25T02:35:09;101906.59;;;9.25;100.00
48553;BME280;34335;51.566;6.994;2023-05-25T02:37:34;101906.34;;;9.14;100.00
48553;BME280;34335;51.566;6.994;2023-05-25T02:40:00;101916.84;;;9.20;100.00
48553;BME280;34335;51.566;6.994;2023-05-25T02:42:25;101910.78;;;9.18;100.00
48553;BME280;34335;51.566;6.994;2023-05-25T02:44:50;101909.03;;;9.17;100.00
48553;BME280;34335;51.566;6.994;2023-05-25T02:47:16;101903.03;;;9.21;100.00
48553;BME280;34335;51.566;6.994;2023-05-25T02:49:43;101907.03;;;9.07;100.00
48553;BME280;34335;51.566;6.994;2023-05-25T02:52:08;101901.91;;;9.10;100.00
48553;BME280;34335;51.566;6.994;2023-05-25T02:54:34;101909.75;;;9.11;100.00
48553;BME280;34335;51.566;6.994;2023-05-25T02:57:00;101914.13;;;9.14;100.00
48553;BME280;34335;51.566;6.994;2023-05-25T02:59:27;101913.28;;;9.15;100.00
48553;BME280;34335;51.566;6.994;2023-05-25T03:01:52;101908.84;;;9.11;100.00
48553;BME280;34335;51.566;6.994;2023-05-25T03:04:17;101911.44;;;9.11;100.00
48553;BME280;34335;51.566;6.994;2023-05-25T03:06:42;101914.94;;;9.11;100.00
48553;BME280;34335;51.566;6.994;2023-05-25T03:09:09;101911.41;;;9.09;100.00
48553;BME280;34335;51.566;6.994;2023-05-25T03:11:34;101907.91;;;9.07;100.00
48553;BME280;34335;51.566;6.994;2023-05-25T03:14:00;101913.16;;;9.09;100.00
48553;BME280;34335;51.566;6.994;2023-05-25T03:16:25;101917.34;;;9.03;100.00
48553;BME280;34335;51.566;6.994;2023-05-25T03:18:51;101918.09;;;8.99;100.00
48553;BME280;34335;51.566;6.994;2023-05-25T03:21:16;101918.06;;;8.98;100.00
48553;BME280;34335;51.566;6.994;2023-05-25T03:23:42;101924.16;;;9.00;100.00
48553;BME280;34335;51.566;6.994;2023-05-25T03:26:07;101932.88;;;9.02;100.00
48553;BME280;34335;51.566;6.994;2023-05-25T03:28:32;101936.09;;;8.93;100.00
48553;BME280;34335;51.566;6.994;2023-05-25T03:30:57;101939.47;;;8.89;100.00
48553;BME280;34335;51.566;6.994;2023-05-25T03:33:23;101942.94;;;8.89;100.00
48553;BME280;34335;51.566;6.994;2023-05-25T03:35:48;101947.84;;;8.79;100.00
48553;BME280;34335;51.566;6.994;2023-05-25T03:38:13;101944.25;;;8.73;100.00
48553;BME280;34335;51.566;6.994;2023-05-25T03:40:39;101957.13;;;8.70;100.00
48553;BME280;34335;51.566;6.994;2023-05-25T03:43:04;101955.31;;;8.68;100.00
48553;BME280;34335;51.566;6.994;2023-05-25T03:45:29;101956.13;;;8.65;100.00
48553;BME280;34335;51.566;6.994;2023-05-25T03:47:54;101962.56;;;8.48;100.00
48553;BME280;34335;51.566;6.994;2023-05-25T03:50:20;101968.84;;;8.25;100.00
48553;BME280;34335;51.566;6.994;2023-05-25T03:52:45;101963.28;;;8.13;100.00
48553;BME280;34335;51.566;6.994;2023-05-25T03:55:11;101964.72;;;8.03;100.00
48553;BME280;34335;51.566;6.994;2023-05-25T03:57:38;101957.03;;;8.06;100.00
48553;BME280;34335;51.566;6.994;2023-05-25T04:00:05;101963.88;;;8.04;100.00
48553;BME280;34335;51.566;6.994;2023-05-25T04:02:30;101969.00;;;8.01;100.00
48553;BME280;34335;51.566;6.994;2023-05-25T04:04:55;101970.66;;;7.99;100.00
48553;BME280;34335;51.566;6.994;2023-05-25T04:07:21;101959.84;;;8.13;100.00
48553;BME280;34335;51.566;6.994;2023-05-25T04:09:46;101970.22;;;8.14;100.00
48553;BME280;34335;51.566;6.994;2023-05-25T04:12:11;101965.19;;;8.19;100.00
48553;BME280;34335;51.566;6.994;2023-05-25T04:14:37;101967.00;;;8.23;100.00
48553;BME280;34335;51.566;6.994;2023-05-25T04:17:02;101960.22;;;8.26;100.00
48553;BME280;34335;51.566;6.994;2023-05-25T04:19:27;101965.56;;;8.33;100.00
48553;BME280;34335;51.566;6.994;2023-05-25T04:21:53;101968.28;;;8.36;100.00
48553;BME280;34335;51.566;6.994;2023-05-25T04:24:18;101968.31;;;8.37;100.00
48553;BME280;34335;51.566;6.994;2023-05-25T04:26:43;101974.41;;;8.39;100.00
48553;BME280;34335;51.566;6.994;2023-05-25T04:29:10;101980.59;;;8.45;100.00
48553;BME280;34335;51.566;6.994;2023-05-25T04:31:36;101973.75;;;8.47;100.00
48553;BME280;34335;51.566;6.994;2023-05-25T04:34:03;101977.56;;;8.58;100.00
48553;BME280;34335;51.566;6.994;2023-05-25T04:36:28;101979.97;;;8.52;100.00
48553;BME280;34335;51.566;6.994;2023-05-25T04:38:56;101985.59;;;8.67;100.00
48553;BME280;34335;51.566;6.994;2023-05-25T04:41:21;101984.41;;;8.88;100.00
48553;BME280;34335;51.566;6.994;2023-05-25T04:43:47;101983.75;;;8.97;100.00
48553;BME280;34335;51.566;6.994;2023-05-25T04:46:14;101993.41;;;9.01;100.00
48553;BME280;34335;51.566;6.994;2023-05-25T04:48:41;101990.81;;;9.02;100.00
48553;BME280;34335;51.566;6.994;2023-05-25T04:51:07;101985.75;;;9.07;100.00
48553;BME280;34335;51.566;6.994;2023-05-25T04:53:33;101990.13;;;9.10;100.00
48553;BME280;34335;51.566;6.994;2023-05-25T04:55:59;101991.13;;;9.13;100.00
48553;BME280;34335;51.566;6.994;2023-05-25T04:58:24;101998.94;;;9.15;100.00
48553;BME280;34335;51.566;6.994;2023-05-25T05:00:50;102006.03;;;9.22;100.00
48553;BME280;34335;51.566;6.994;2023-05-25T05:03:15;102018.03;;;9.17;100.00
48553;BME280;34335;51.566;6.994;2023-05-25T05:05:41;102014.59;;;9.18;100.00
48553;BME280;34335;51.566;6.994;2023-05-25T05:08:08;102019.59;;;9.10;100.00
48553;BME280;34335;51.566;6.994;2023-05-25T05:10:33;102022.38;;;9.18;100.00
48553;BME280;34335;51.566;6.994;2023-05-25T05:12:59;102021.88;;;9.33;100.00
48553;BME280;34335;51.566;6.994;2023-05-25T05:15:24;102016.66;;;9.31;100.00
48553;BME280;34335;51.566;6.994;2023-05-25T05:17:50;102008.25;;;9.42;100.00
48553;BME280;34335;51.566;6.994;2023-05-25T05:20:15;102021.44;;;9.49;100.00
48553;BME280;34335;51.566;6.994;2023-05-25T05:22:40;102015.56;;;9.58;100.00
48553;BME280;34335;51.566;6.994;2023-05-25T05:25:06;102020.84;;;9.61;100.00
48553;BME280;34335;51.566;6.994;2023-05-25T05:27:32;102025.28;;;9.65;100.00
48553;BME280;34335;51.566;6.994;2023-05-25T05:29:57;102027.09;;;9.70;100.00
48553;BME280;34335;51.566;6.994;2023-05-25T05:32:22;102026.34;;;9.74;100.00
48553;BME280;34335;51.566;6.994;2023-05-25T05:34:47;102034.25;;;9.78;100.00
48553;BME280;34335;51.566;6.994;2023-05-25T05:37:13;102031.75;;;9.83;100.00
48553;BME280;34335;51.566;6.994;2023-05-25T05:39:38;102035.41;;;9.91;100.00
48553;BME280;34335;51.566;6.994;2023-05-25T05:42:04;102043.28;;;9.94;100.00
48553;BME280;34335;51.566;6.994;2023-05-25T05:44:29;102043.44;;;10.02;100.00
48553;BME280;34335;51.566;6.994;2023-05-25T05:46:55;102053.94;;;10.07;100.00
48553;BME280;34335;51.566;6.994;2023-05-25T05:49:25;102051.63;;;10.19;100.00
48553;BME280;34335;51.566;6.994;2023-05-25T05:51:51;102062.31;;;10.32;100.00
48553;BME280;34335;51.566;6.994;2023-05-25T05:54:16;102064.72;;;10.24;100.00
48553;BME280;34335;51.566;6.994;2023-05-25T05:56:41;102065.09;;;10.39;100.00
48553;BME280;34335;51.566;6.994;2023-05-25T05:59:06;102064.59;;;10.57;100.00
48553;BME280;34335;51.566;6.994;2023-05-25T06:01:32;102068.09;;;10.58;100.00
48553;BME280;34335;51.566;6.994;2023-05-25T06:03:57;102070.81;;;10.64;100.00
48553;BME280;34335;51.566;6.994;2023-05-25T06:06:23;102077.91;;;10.73;100.00
48553;BME280;34335;51.566;6.994;2023-05-25T06:08:48;102071.94;;;10.77;100.00
48553;BME280;34335;51.566;6.994;2023-05-25T06:11:14;102069.63;;;10.91;100.00
48553;BME280;34335;51.566;6.994;2023-05-25T06:13:39;102062.06;;;11.05;100.00
48553;BME280;34335;51.566;6.994;2023-05-25T06:16:05;102070.97;;;11.16;100.00
48553;BME280;34335;51.566;6.994;2023-05-25T06:18:30;102058.88;;;11.21;100.00
48553;BME280;34335;51.566;6.994;2023-05-25T06:20:55;102061.72;;;11.34;100.00
48553;BME280;34335;51.566;6.994;2023-05-25T06:23:21;102055.91;;;11.49;100.00
48553;BME280;34335;51.566;6.994;2023-05-25T06:25:46;102066.47;;;11.57;100.00
48553;BME280;34335;51.566;6.994;2023-05-25T06:28:12;102065.56;;;11.56;100.00
48553;BME280;34335;51.566;6.994;2023-05-25T06:30:37;102066.41;;;11.55;100.00
48553;BME280;34335;51.566;6.994;2023-05-25T06:33:02;102076.13;;;11.65;100.00
48553;BME280;34335;51.566;6.994;2023-05-25T06:35:28;102071.06;;;11.73;100.00
48553;BME280;34335;51.566;6.994;2023-05-25T06:37:54;102072.19;;;11.91;100.00
48553;BME280;34335;51.566;6.994;2023-05-25T06:40:19;102080.25;;;12.02;100.00
48553;BME280;34335;51.566;6.994;2023-05-25T06:42:44;102075.97;;;12.08;100.00
48553;BME280;34335;51.566;6.994;2023-05-25T06:45:10;102089.19;;;12.19;100.00
48553;BME280;34335;51.566;6.994;2023-05-25T06:47:35;102088.53;;;12.34;100.00
48553;BME280;34335;51.566;6.994;2023-05-25T06:50:01;102086.97;;;12.49;100.00
48553;BME280;34335;51.566;6.994;2023-05-25T06:52:27;102088.00;;;12.61;100.00
48553;BME280;34335;51.566;6.994;2023-05-25T06:54:53;102092.41;;;12.67;100.00
48553;BME280;34335;51.566;6.994;2023-05-25T06:57:18;102091.81;;;12.88;100.00
48553;BME280;34335;51.566;6.994;2023-05-25T06:59:43;102086.72;;;13.01;100.00
48553;BME280;34335;51.566;6.994;2023-05-25T07:02:09;102095.53;;;13.12;100.00
48553;BME280;34335;51.566;6.994;2023-05-25T07:04:34;102087.84;;;13.28;100.00
48553;BME280;34335;51.566;6.994;2023-05-25T07:06:59;102089.66;;;13.33;100.00
48553;BME280;34335;51.566;6.994;2023-05-25T07:09:25;102088.34;;;13.76;100.00
48553;BME280;34335;51.566;6.994;2023-05-25T07:11:50;102097.13;;;13.90;100.00
48553;BME280;34335;51.566;6.994;2023-05-25T07:14:16;102089.22;;;13.81;100.00
48553;BME280;34335;51.566;6.994;2023-05-25T07:16:42;102087.47;;;13.77;100.00
48553;BME280;34335;51.566;6.994;2023-05-25T07:19:09;102087.63;;;13.98;100.00
48553;BME280;34335;51.566;6.994;2023-05-25T07:21:35;102091.19;;;14.13;100.00
48553;BME280;34335;51.566;6.994;2023-05-25T07:24:01;102100.09;;;14.41;100.00
48553;BME280;34335;51.566;6.994;2023-05-25T07:26:27;102101.06;;;14.60;100.00
48553;BME280;34335;51.566;6.994;2023-05-25T07:28:52;102101.03;;;14.54;100.00
48553;BME280;34335;51.566;6.994;2023-05-25T07:31:18;102098.34;;;14.43;100.00
48553;BME280;34335;51.566;6.994;2023-05-25T07:33:43;102101.94;;;14.61;100.00
48553;BME280;34335;51.566;6.994;2023-05-25T07:36:08;102103.69;;;14.65;100.00
48553;BME280;34335;51.566;6.994;2023-05-25T07:38:34;102109.84;;;14.69;100.00
48553;BME280;34335;51.566;6.994;2023-05-25T07:41:00;102107.31;;;14.89;100.00
48553;BME280;34335;51.566;6.994;2023-05-25T07:43:26;102115.22;;;15.09;100.00
48553;BME280;34335;51.566;6.994;2023-05-25T07:45:51;102118.75;;;15.20;100.00
48553;BME280;34335;51.566;6.994;2023-05-25T07:48:17;102113.50;;;15.11;100.00
48553;BME280;34335;51.566;6.994;2023-05-25T07:50:42;102114.38;;;15.08;100.00
48553;BME280;34335;51.566;6.994;2023-05-25T07:53:07;102118.66;;;14.89;100.00
48553;BME280;34335;51.566;6.994;2023-05-25T07:55:33;102120.44;;;14.98;100.00
48553;BME280;34335;51.566;6.994;2023-05-25T07:57:58;102116.16;;;15.23;100.00
48553;BME280;34335;51.566;6.994;2023-05-25T08:00:23;102118.78;;;15.23;100.00
48553;BME280;34335;51.566;6.994;2023-05-25T08:02:49;102117.91;;;15.21;100.00
48553;BME280;34335;51.566;6.994;2023-05-25T08:05:14;102127.50;;;15.29;100.00
48553;BME280;34335;51.566;6.994;2023-05-25T08:07:40;102125.78;;;15.40;100.00
48553;BME280;34335;51.566;6.994;2023-05-25T08:10:05;102129.28;;;15.33;100.00
48553;BME280;34335;51.566;6.994;2023-05-25T08:12:31;102118.81;;;15.43;100.00
48553;BME280;34335;51.566;6.994;2023-05-25T08:14:57;102121.44;;;15.61;100.00
48553;BME280;34335;51.566;6.994;2023-05-25T08:17:22;102127.56;;;15.69;100.00
48553;BME280;34335;51.566;6.994;2023-05-25T08:19:48;102138.03;;;15.41;100.00
48553;BME280;34335;51.566;6.994;2023-05-25T08:22:13;102131.91;;;15.54;100.00
48553;BME280;34335;51.566;6.994;2023-05-25T08:24:38;102136.25;;;15.31;100.00
48553;BME280;34335;51.566;6.994;2023-05-25T08:27:04;102137.13;;;15.36;100.00
48553;BME280;34335;51.566;6.994;2023-05-25T08:29:29;102137.13;;;15.33;100.00
48553;BME280;34335;51.566;6.994;2023-05-25T08:31:55;102140.59;;;15.30;100.00
48553;BME280;34335;51.566;6.994;2023-05-25T08:34:21;102150.28;;;15.57;100.00
48553;BME280;34335;51.566;6.994;2023-05-25T08:36:46;102150.28;;;15.56;100.00
48553;BME280;34335;51.566;6.994;2023-05-25T08:39:12;102149.41;;;15.68;100.00
48553;BME280;34335;51.566;6.994;2023-05-25T08:41:44;102148.53;;;15.60;100.00
48553;BME280;34335;51.566;6.994;2023-05-25T08:44:10;102156.34;;;15.38;100.00
48553;BME280;34335;51.566;6.994;2023-05-25T08:46:36;102162.50;;;15.45;100.00
48553;BME280;34335;51.566;6.994;2023-05-25T08:49:13;102162.38;;;15.03;100.00
48553;BME280;34335;51.566;6.994;2023-05-25T08:51:47;102162.41;;;15.15;100.00
48553;BME280;34335;51.566;6.994;2023-05-25T08:54:20;102162.50;;;15.38;100.00
48553;BME280;34335;51.566;6.994;2023-05-25T08:56:51;102171.25;;;15.64;100.00
48553;BME280;34335;51.566;6.994;2023-05-25T08:59:25;102169.50;;;15.60;100.00
48553;BME280;34335;51.566;6.994;2023-05-25T09:01:57;102164.28;;;15.69;100.00
48553;BME280;34335;51.566;6.994;2023-05-25T09:04:26;102162.56;;;15.86;100.00
48553;BME280;34335;51.566;6.994;2023-05-25T09:06:52;102160.81;;;16.10;100.00
48553;BME280;34335;51.566;6.994;2023-05-25T09:09:21;102169.56;;;16.01;100.00
48553;BME280;34335;51.566;6.994;2023-05-25T09:11:46;102160.81;;;16.10;100.00
48553;BME280;34335;51.566;6.994;2023-05-25T09:14:12;102161.69;;;15.84;100.00
48553;BME280;34335;51.566;6.994;2023-05-25T09:16:37;102162.56;;;16.13;100.00
48553;BME280;34335;51.566;6.994;2023-05-25T09:19:04;102169.56;;;16.12;100.00
48553;BME280;34335;51.566;6.994;2023-05-25T09:21:29;102171.28;;;16.32;100.00
48553;BME280;34335;51.566;6.994;2023-05-25T09:23:54;102169.53;;;16.37;100.00
48553;BME280;34335;51.566;6.994;2023-05-25T09:26:20;102163.41;;;16.32;100.00
48553;BME280;34335;51.566;6.994;2023-05-25T09:28:46;102164.28;;;16.32;100.00
48553;BME280;34335;51.566;6.994;2023-05-25T09:31:13;102169.56;;;16.12;100.00
48553;BME280;34335;51.566;6.994;2023-05-25T09:33:38;102174.78;;;16.34;100.00
48553;BME280;34335;51.566;6.994;2023-05-25T09:36:05;102173.88;;;16.52;100.00
48553;BME280;34335;51.566;6.994;2023-05-25T09:38:31;102164.25;;;16.46;100.00
48553;BME280;34335;51.566;6.994;2023-05-25T09:40:57;102166.03;;;16.35;100.00
48553;BME280;34335;51.566;6.994;2023-05-25T09:43:23;102163.44;;;16.29;100.00
48553;BME280;34335;51.566;6.994;2023-05-25T09:45:51;102170.44;;;16.30;100.00
48553;BME280;34335;51.566;6.994;2023-05-25T09:48:16;102166.88;;;16.59;100.00
48553;BME280;34335;51.566;6.994;2023-05-25T09:50:42;102171.25;;;16.57;100.00
48553;BME280;34335;51.566;6.994;2023-05-25T09:53:07;102167.75;;;16.53;100.00
48553;BME280;34335;51.566;6.994;2023-05-25T09:55:33;102173.84;;;16.61;100.00
48553;BME280;34335;51.566;6.994;2023-05-25T09:58:00;102176.47;;;16.58;100.00
48553;BME280;34335;51.566;6.994;2023-05-25T10:00:26;102180.84;;;16.64;100.00
48553;BME280;34335;51.566;6.994;2023-05-25T10:02:52;102179.13;;;16.44;100.00
48553;BME280;34335;51.566;6.994;2023-05-25T10:05:17;102182.66;;;16.25;100.00
48553;BME280;34335;51.566;6.994;2023-05-25T10:07:44;102180.03;;;16.37;100.00
48553;BME280;34335;51.566;6.994;2023-05-25T10:10:12;102174.78;;;16.31;100.00
48553;BME280;34335;51.566;6.994;2023-05-25T10:12:40;102186.19;;;16.20;100.00
48553;BME280;34335;51.566;6.994;2023-05-25T10:15:06;102183.53;;;16.33;100.00
48553;BME280;34335;51.566;6.994;2023-05-25T10:17:34;102198.41;;;16.34;100.00
48553;BME280;34335;51.566;6.994;2023-05-25T10:20:02;102189.66;;;16.44;100.00
48553;BME280;34335;51.566;6.994;2023-05-25T10:22:39;102187.94;;;16.20;100.00
48553;BME280;34335;51.566;6.994;2023-05-25T10:27:37;102186.09;;;16.69;100.00
48553;BME280;34335;51.566;6.994;2023-05-25T10:30:04;102186.13;;;16.62;100.00
48553;BME280;34335;51.566;6.994;2023-05-25T10:32:31;102183.47;;;16.65;100.00
48553;BME280;34335;51.566;6.994;2023-05-25T10:34:57;102183.41;;;16.79;100.00
48553;BME280;34335;51.566;6.994;2023-05-25T10:37:25;102185.97;;;17.07;100.00
48553;BME280;34335;51.566;6.994;2023-05-25T10:39:52;102184.22;;;17.09;100.00
48553;BME280;34335;51.566;6.994;2023-05-25T10:42:19;102186.09;;;16.67;100.00
48553;BME280;34335;51.566;6.994;2023-05-25T10:44:45;102185.19;;;16.74;100.00
48553;BME280;34335;51.566;6.994;2023-05-25T10:47:11;102185.22;;;16.62;100.00
48553;BME280;34335;51.566;6.994;2023-05-25T10:52:17;102186.03;;;16.95;100.00
48553;BME280;34335;51.566;6.994;2023-05-25T10:54:47;102178.13;;;17.01;100.00
48553;BME280;34335;51.566;6.994;2023-05-25T10:57:19;102188.63;;;17.04;100.00
48553;BME280;34335;51.566;6.994;2023-05-25T10:59:49;102181.66;;;16.85;100.00
48553;BME280;34335;51.566;6.994;2023-05-25T11:02:16;102176.34;;;17.08;100.00
48553;BME280;34335;51.566;6.994;2023-05-25T11:04:41;102183.41;;;16.95;100.00
48553;BME280;34335;51.566;6.994;2023-05-25T11:07:13;102185.16;;;16.94;100.00
48553;BME280;34335;51.566;6.994;2023-05-25T11:09:41;102183.56;;;16.14;100.00
48553;BME280;34335;51.566;6.994;2023-05-25T11:12:20;102170.38;;;16.42;100.00
48553;BME280;34335;51.566;6.994;2023-05-25T11:15:12;102179.03;;;16.97;100.00
48553;BME280;34335;51.566;6.994;2023-05-25T11:18:05;102178.16;;;16.95;100.00
48553;BME280;34335;51.566;6.994;2023-05-25T11:20:30;102179.88;;;16.90;100.00
48553;BME280;34335;51.566;6.994;2023-05-25T11:22:56;102176.41;;;16.85;100.00
48553;BME280;34335;51.566;6.994;2023-05-25T11:25:34;102173.75;;;17.00;100.00
48553;BME280;34335;51.566;6.994;2023-05-25T11:28:07;102165.78;;;17.20;99.24
48553;BME280;34335;51.566;6.994;2023-05-25T11:30:33;102164.84;;;17.29;97.21
48553;BME280;34335;51.566;6.994;2023-05-25T11:33:02;102159.53;;;17.34;97.54
48553;BME280;34335;51.566;6.994;2023-05-25T11:35:28;102162.97;;;17.47;97.60
48553;BME280;34335;51.566;6.994;2023-05-25T11:37:58;102158.44;;;17.69;95.14
48553;BME280;34335;51.566;6.994;2023-05-25T11:40:28;102154.09;;;17.62;92.63
48553;BME280;34335;51.566;6.994;2023-05-25T11:42:54;102149.50;;;17.87;90.62
48553;BME280;34335;51.566;6.994;2023-05-25T11:45:21;102151.19;;;18.00;90.99
48553;BME280;34335;51.566;6.994;2023-05-25T11:47:47;102146.06;;;17.80;87.06
48553;BME280;34335;51.566;6.994;2023-05-25T11:50:15;102140.66;;;18.00;89.75
48553;BME280;34335;51.566;6.994;2023-05-25T11:52:41;102131.00;;;18.01;86.93
48553;BME280;34335;51.566;6.994;2023-05-25T11:55:13;102136.81;;;18.35;88.28
48553;BME280;34335;51.566;6.994;2023-05-25T11:57:39;102135.13;;;18.31;87.73
48553;BME280;34335;51.566;6.994;2023-05-25T12:00:06;102134.91;;;18.50;87.96
48553;BME280;34335;51.566;6.994;2023-05-25T12:02:39;102126.13;;;18.51;86.29
48553;BME280;34335;51.566;6.994;2023-05-25T12:05:06;102123.13;;;18.77;87.22
48553;BME280;34335;51.566;6.994;2023-05-25T12:07:34;102132.56;;;19.00;86.65
48553;BME280;34335;51.566;6.994;2023-05-25T12:10:07;102138.56;;;19.11;85.39
48553;BME280;34335;51.566;6.994;2023-05-25T12:12:42;102129.31;;;18.78;81.98
48553;BME280;34335;51.566;6.994;2023-05-25T12:15:10;102121.53;;;19.33;85.95
48553;BME280;34335;51.566;6.994;2023-05-25T12:17:39;102125.94;;;19.34;85.00
48553;BME280;34335;51.566;6.994;2023-05-25T12:20:05;102122.22;;;19.45;85.72
48553;BME280;34335;51.566;6.994;2023-05-25T12:22:32;102123.47;;;19.21;85.74
48553;BME280;34335;51.566;6.994;2023-05-25T12:24:57;102121.56;;;19.31;85.62
48553;BME280;34335;51.566;6.994;2023-05-25T12:27:23;102121.09;;;19.60;83.26
48553;BME280;34335;51.566;6.994;2023-05-25T12:29:48;102110.84;;;19.42;84.81
48553;BME280;34335;51.566;6.994;2023-05-25T12:32:14;102109.06;;;19.44;80.46
48553;BME280;34335;51.566;6.994;2023-05-25T12:34:40;102109.22;;;19.35;80.64
48553;BME280;34335;51.566;6.994;2023-05-25T12:37:16;102103.91;;;19.38;81.11
48553;BME280;34335;51.566;6.994;2023-05-25T12:39:43;102107.28;;;19.46;80.67
48553;BME280;34335;51.566;6.994;2023-05-25T12:42:13;102107.75;;;19.70;79.63
48553;BME280;34335;51.566;6.994;2023-05-25T12:44:40;102096.38;;;19.66;78.34
48553;BME280;34335;51.566;6.994;2023-05-25T12:47:24;102104.84;;;20.35;78.70
48553;BME280;34335;51.566;6.994;2023-05-25T12:50:12;102093.09;;;20.50;74.75